createdAt,value
2017-06-26T00:00:50.825Z,1005.41
2017-06-26T00:02:01.307Z,1005.39
2017-06-26T00:03:11.545Z,1005.42
2017-06-26T00:04:21.774Z,1005.43
2017-06-26T00:05:32.009Z,1005.44
2017-06-26T00:06:42.249Z,1005.44
2017-06-26T00:07:52.440Z,1005.41
2017-06-26T00:09:02.681Z,1005.38
2017-06-26T00:10:12.924Z,1005.38
2017-06-26T00:11:23.158Z,1005.39
2017-06-26T00:12:33.395Z,1005.38
2017-06-26T00:13:43.878Z,1005.37
2017-06-26T00:14:54.130Z,1005.39
2017-06-26T00:16:04.374Z,1005.41
2017-06-26T00:17:14.004Z,1005.4
2017-06-26T00:18:23.628Z,1005.38
2017-06-26T00:19:34.145Z,1005.37
2017-06-26T00:20:44.079Z,1005.41
2017-06-26T00:21:54.015Z,1005.39
2017-06-26T00:23:04.256Z,1005.43
2017-06-26T00:24:14.497Z,1005.35
2017-06-26T00:25:24.975Z,1005.36
2017-06-26T00:26:35.211Z,1005.38
2017-06-26T00:27:45.455Z,1005.38
2017-06-26T00:28:55.691Z,1005.34
2017-06-26T00:30:05.943Z,1005.28
2017-06-26T00:31:16.118Z,1005.34
2017-06-26T00:32:26.044Z,1005.3
2017-06-26T00:33:36.280Z,1005.28
2017-06-26T00:34:46.243Z,1005.28
2017-06-26T00:35:56.476Z,1005.24
2017-06-26T00:37:06.964Z,1005.24
2017-06-26T00:38:17.206Z,1005.21
2017-06-26T00:39:27.142Z,1005.16
2017-06-26T00:40:37.383Z,1005.11
2017-06-26T00:41:47.315Z,1005.13
2017-06-26T00:42:57.499Z,1005.11
2017-06-26T00:44:07.120Z,1005.16
2017-06-26T00:45:17.041Z,1005.17
2017-06-26T00:46:26.974Z,1005.14
2017-06-26T00:47:37.208Z,1005.13
2017-06-26T00:48:47.076Z,1005.19
2017-06-26T00:49:57.030Z,1005.19
2017-06-26T00:51:07.283Z,1005.13
2017-06-26T00:52:17.514Z,1005.15
2017-06-26T00:53:27.748Z,1005.13
2017-06-26T00:54:38.245Z,1005.15
2017-06-26T00:55:48.170Z,1005.15
2017-06-26T00:56:57.482Z,1005.15
2017-06-26T00:58:07.405Z,1005.14
2017-06-26T00:59:17.636Z,1005.11
2017-06-26T01:00:28.120Z,1005.15
2017-06-26T01:01:38.352Z,1005.18
2017-06-26T01:02:48.596Z,1005.15
2017-06-26T01:03:58.824Z,1005.18
2017-06-26T01:05:08.755Z,1005.16
2017-06-26T01:06:18.630Z,1005.18
2017-06-26T01:07:28.852Z,1005.21
2017-06-26T01:08:38.776Z,1005.24
2017-06-26T01:09:48.706Z,1005.27
2017-06-26T01:10:58.943Z,1005.27
2017-06-26T01:12:09.418Z,1005.26
2017-06-26T01:13:19.350Z,1005.17
2017-06-26T01:14:29.587Z,1005.17
2017-06-26T01:15:39.521Z,1005.17
2017-06-26T01:16:49.761Z,1005.16
2017-06-26T01:18:00.256Z,1005.13
2017-06-26T01:19:10.491Z,1005.22
2017-06-26T01:20:20.732Z,1005.27
2017-06-26T01:21:30.969Z,1005.3
2017-06-26T01:22:40.902Z,1005.28
2017-06-26T01:23:51.391Z,1005.3
2017-06-26T01:25:01.623Z,1005.34
2017-06-26T01:26:11.867Z,1005.26
2017-06-26T01:27:22.099Z,1005.32
2017-06-26T01:28:32.359Z,1005.29
2017-06-26T01:29:42.839Z,1005.27
2017-06-26T01:30:53.087Z,1005.32
2017-06-26T01:32:03.318Z,1005.27
2017-06-26T01:33:13.244Z,1005.22
2017-06-26T01:34:23.489Z,1005.2
2017-06-26T01:35:33.984Z,1005.25
2017-06-26T01:36:43.931Z,1005.22
2017-06-26T01:37:53.853Z,1005.23
2017-06-26T01:39:04.089Z,1005.24
2017-06-26T01:40:14.321Z,1005.22
2017-06-26T01:41:24.812Z,1005.16
2017-06-26T01:42:35.055Z,1005.18
2017-06-26T01:43:44.980Z,1005.12
2017-06-26T01:44:54.911Z,1005.04
2017-06-26T01:46:04.834Z,1005
2017-06-26T01:47:15.333Z,1004.99
2017-06-26T01:48:25.564Z,1004.97
2017-06-26T01:49:35.495Z,1004.89
2017-06-26T01:50:45.724Z,1004.88
2017-06-26T01:51:55.960Z,1004.88
2017-06-26T01:53:06.446Z,1004.87
2017-06-26T01:54:16.369Z,1004.92
2017-06-26T01:55:26.600Z,1004.87
2017-06-26T01:56:36.835Z,1004.9
2017-06-26T01:57:47.071Z,1004.87
2017-06-26T01:58:57.554Z,1004.9
2017-06-26T02:00:07.788Z,1004.89
2017-06-26T02:01:17.717Z,1004.95
2017-06-26T02:02:27.644Z,1004.99
2017-06-26T02:03:37.876Z,1004.92
2017-06-26T02:04:48.360Z,1004.97
2017-06-26T02:05:58.595Z,1004.95
2017-06-26T02:07:08.524Z,1004.9
2017-06-26T02:08:18.762Z,1004.85
2017-06-26T02:09:28.993Z,1004.84
2017-06-26T02:10:39.172Z,1004.88
2017-06-26T02:11:49.092Z,1004.86
2017-06-26T02:12:59.331Z,1004.89
2017-06-26T02:14:09.281Z,1004.84
2017-06-26T02:15:19.517Z,1004.89
2017-06-26T02:16:29.688Z,1004.9
2017-06-26T02:17:39.926Z,1004.91
2017-06-26T02:18:50.164Z,1004.9
2017-06-26T02:20:00.393Z,1004.89
2017-06-26T02:21:10.623Z,1004.89
2017-06-26T02:22:21.114Z,1004.85
2017-06-26T02:23:31.359Z,1004.9
2017-06-26T02:24:40.975Z,1004.87
2017-06-26T02:25:51.206Z,1004.88
2017-06-26T02:27:01.134Z,1004.83
2017-06-26T02:28:11.619Z,1004.8
2017-06-26T02:29:21.852Z,1004.84
2017-06-26T02:30:32.110Z,1004.76
2017-06-26T02:31:42.352Z,1004.73
2017-06-26T02:32:52.600Z,1004.73
2017-06-26T02:34:02.799Z,1004.75
2017-06-26T02:35:13.029Z,1004.76
2017-06-26T02:36:23.293Z,1004.77
2017-06-26T02:37:33.536Z,1004.75
2017-06-26T02:38:43.764Z,1004.74
2017-06-26T02:39:54.246Z,1004.69
2017-06-26T02:41:04.176Z,1004.63
2017-06-26T02:42:14.417Z,1004.62
2017-06-26T02:43:24.675Z,1004.57
2017-06-26T02:44:34.906Z,1004.51
2017-06-26T02:45:45.086Z,1004.52
2017-06-26T02:46:55.316Z,1004.49
2017-06-26T02:48:05.554Z,1004.4
2017-06-26T02:49:15.815Z,1004.34
2017-06-26T02:50:26.056Z,1004.34
2017-06-26T02:51:36.247Z,1004.32
2017-06-26T02:52:46.478Z,1004.29
2017-06-26T02:53:56.714Z,1004.26
2017-06-26T02:55:06.956Z,1004.23
2017-06-26T02:56:17.193Z,1004.25
2017-06-26T02:57:27.680Z,1004.25
2017-06-26T02:58:37.918Z,1004.3
2017-06-26T02:59:48.149Z,1004.24
2017-06-26T03:00:58.385Z,1004.27
2017-06-26T03:02:08.323Z,1004.22
2017-06-26T03:03:18.807Z,1004.21
2017-06-26T03:04:28.737Z,1004.23
2017-06-26T03:05:38.968Z,1004.22
2017-06-26T03:06:48.892Z,1004.27
2017-06-26T03:07:58.815Z,1004.28
2017-06-26T03:09:08.992Z,1004.3
2017-06-26T03:10:19.230Z,1004.28
2017-06-26T03:11:29.167Z,1004.33
2017-06-26T03:12:39.087Z,1004.36
2017-06-26T03:13:49.010Z,1004.4
2017-06-26T03:14:59.514Z,1004.43
2017-06-26T03:16:09.746Z,1004.46
2017-06-26T03:17:19.984Z,1004.48
2017-06-26T03:18:29.916Z,1004.44
2017-06-26T03:19:40.151Z,1004.48
2017-06-26T03:20:50.640Z,1004.54
2017-06-26T03:22:00.566Z,1004.44
2017-06-26T03:23:10.795Z,1004.5
2017-06-26T03:24:20.752Z,1004.49
2017-06-26T03:25:30.686Z,1004.49
2017-06-26T03:26:40.895Z,1004.52
2017-06-26T03:27:51.121Z,1004.56
2017-06-26T03:29:00.742Z,1004.55
2017-06-26T03:30:10.988Z,1004.51
2017-06-26T03:31:20.916Z,1004.57
2017-06-26T03:32:31.406Z,1004.52
2017-06-26T03:33:41.651Z,1004.59
2017-06-26T03:34:51.904Z,1004.57
2017-06-26T03:36:01.843Z,1004.56
2017-06-26T03:37:11.776Z,1004.57
2017-06-26T03:38:22.257Z,1004.57
2017-06-26T03:39:32.488Z,1004.58
2017-06-26T03:40:42.106Z,1004.55
2017-06-26T03:41:52.033Z,1004.54
2017-06-26T03:43:02.268Z,1004.55
2017-06-26T03:44:12.489Z,1004.54
2017-06-26T03:45:22.744Z,1004.55
2017-06-26T03:46:32.675Z,1004.53
2017-06-26T03:47:42.606Z,1004.51
2017-06-26T03:48:52.844Z,1004.48
2017-06-26T03:50:03.325Z,1004.42
2017-06-26T03:51:13.564Z,1004.42
2017-06-26T03:52:23.813Z,1004.44
2017-06-26T03:53:34.051Z,1004.43
2017-06-26T03:54:43.981Z,1004.3
2017-06-26T03:55:54.497Z,1004.37
2017-06-26T03:57:04.431Z,1004.28
2017-06-26T03:58:14.056Z,1004.29
2017-06-26T03:59:24.289Z,1004.28
2017-06-26T04:00:34.222Z,1004.27
2017-06-26T04:01:44.402Z,1004.25
2017-06-26T04:02:54.635Z,1004.27
2017-06-26T04:04:04.867Z,1004.21
2017-06-26T04:05:15.104Z,1004.22
2017-06-26T04:06:25.340Z,1004.2
2017-06-26T04:07:35.828Z,1004.2
2017-06-26T04:08:45.749Z,1004.18
2017-06-26T04:09:55.981Z,1004.16
2017-06-26T04:11:06.215Z,1004.09
2017-06-26T04:12:16.155Z,1003.98
2017-06-26T04:13:25.721Z,1003.97
2017-06-26T04:14:35.953Z,1004.03
2017-06-26T04:15:45.882Z,1004.12
2017-06-26T04:16:56.116Z,1004.14
2017-06-26T04:18:06.356Z,1004.11
2017-06-26T04:19:16.853Z,1004.06
2017-06-26T04:20:27.087Z,1004.2
2017-06-26T04:21:37.317Z,1004.2
2017-06-26T04:22:47.553Z,1004.19
2017-06-26T04:23:57.805Z,1004.2
2017-06-26T04:25:08.283Z,1004.19
2017-06-26T04:26:18.521Z,1004.19
2017-06-26T04:27:28.450Z,1004.21
2017-06-26T04:28:38.368Z,1004.23
2017-06-26T04:29:48.308Z,1004.23
2017-06-26T04:30:58.791Z,1004.21
2017-06-26T04:32:09.030Z,1004.24
2017-06-26T04:33:19.300Z,1004.17
2017-06-26T04:34:29.535Z,1004.16
2017-06-26T04:35:39.462Z,1004.12
2017-06-26T04:36:49.638Z,1004.14
2017-06-26T04:37:59.889Z,1004.13
2017-06-26T04:39:10.120Z,1004.15
2017-06-26T04:40:20.366Z,1004.09
2017-06-26T04:41:30.601Z,1004.09
2017-06-26T04:42:40.490Z,1004.05
2017-06-26T04:43:50.727Z,1004.06
2017-06-26T04:45:00.672Z,1004.04
2017-06-26T04:46:10.605Z,1004
2017-06-26T04:47:19.925Z,1004.05
2017-06-26T04:48:30.411Z,1004.03
2017-06-26T04:49:40.350Z,1004.01
2017-06-26T04:50:50.590Z,1004.05
2017-06-26T04:52:00.826Z,1004.03
2017-06-26T04:53:11.073Z,1003.98
2017-06-26T04:54:21.563Z,1003.93
2017-06-26T04:55:31.799Z,1003.92
2017-06-26T04:56:42.039Z,1003.92
2017-06-26T04:57:52.280Z,1003.91
2017-06-26T04:59:02.510Z,1003.92
2017-06-26T05:00:12.696Z,1003.92
2017-06-26T05:01:22.931Z,1003.91
2017-06-26T05:02:33.169Z,1003.87
2017-06-26T05:03:43.398Z,1003.89
2017-06-26T05:04:53.327Z,1003.93
2017-06-26T05:06:03.510Z,1003.93
2017-06-26T05:07:13.759Z,1003.95
2017-06-26T05:08:23.687Z,1003.94
2017-06-26T05:09:33.931Z,1003.91
2017-06-26T05:10:44.189Z,1003.89
2017-06-26T05:11:54.673Z,1003.91
2017-06-26T05:13:04.639Z,1003.85
2017-06-26T05:14:14.570Z,1003.82
2017-06-26T05:15:24.810Z,1003.83
2017-06-26T05:16:35.056Z,1003.75
2017-06-26T05:17:45.299Z,1003.8
2017-06-26T05:18:54.921Z,1003.83
2017-06-26T05:20:05.162Z,1003.87
2017-06-26T05:21:15.117Z,1003.82
2017-06-26T05:22:25.363Z,1003.77
2017-06-26T05:23:36.006Z,1003.76
2017-06-26T05:24:45.933Z,1003.72
2017-06-26T05:25:56.173Z,1003.8
2017-06-26T05:27:06.100Z,1003.76
2017-06-26T05:28:16.361Z,1003.79
2017-06-26T05:29:26.847Z,1003.82
2017-06-26T05:30:37.085Z,1003.82
2017-06-26T05:31:47.335Z,1003.78
2017-06-26T05:32:57.273Z,1003.79
2017-06-26T05:34:07.211Z,1003.8
2017-06-26T05:35:17.382Z,1003.78
2017-06-26T05:36:27.652Z,1003.8
2017-06-26T05:37:37.943Z,1003.8
2017-06-26T05:38:47.879Z,1003.75
2017-06-26T05:39:58.125Z,1003.75
2017-06-26T05:41:08.609Z,1003.75
2017-06-26T05:42:18.855Z,1003.77
2017-06-26T05:43:29.101Z,1003.79
2017-06-26T05:44:39.347Z,1003.79
2017-06-26T05:45:49.593Z,1003.88
2017-06-26T05:46:59.473Z,1003.98
2017-06-26T05:48:09.716Z,1003.98
2017-06-26T05:49:19.962Z,1003.9
2017-06-26T05:50:29.897Z,1003.9
2017-06-26T05:51:39.829Z,1003.93
2017-06-26T05:52:50.348Z,1003.95
2017-06-26T05:54:00.314Z,1003.92
2017-06-26T05:55:10.562Z,1003.94
2017-06-26T05:56:20.825Z,1003.93
2017-06-26T05:57:31.080Z,1003.92
2017-06-26T05:58:41.565Z,1003.88
2017-06-26T05:59:51.828Z,1003.96
2017-06-26T06:01:02.075Z,1003.94
2017-06-26T06:02:12.318Z,1003.96
2017-06-26T06:03:21.949Z,1004
2017-06-26T06:04:32.133Z,1003.98
2017-06-26T06:05:42.370Z,1003.98
2017-06-26T06:06:52.612Z,1003.94
2017-06-26T06:08:02.870Z,1003.93
2017-06-26T06:09:13.126Z,1003.95
2017-06-26T06:10:23.626Z,1003.97
2017-06-26T06:11:32.939Z,1003.94
2017-06-26T06:12:43.226Z,1003.94
2017-06-26T06:13:53.462Z,1003.94
2017-06-26T06:15:03.695Z,1003.93
2017-06-26T06:16:14.195Z,1003.96
2017-06-26T06:17:24.510Z,1003.95
2017-06-26T06:18:34.741Z,1003.91
2017-06-26T06:19:44.724Z,1003.91
2017-06-26T06:20:54.665Z,1003.87
2017-06-26T06:22:05.196Z,1003.83
2017-06-26T06:23:15.460Z,1003.79
2017-06-26T06:24:25.128Z,1003.82
2017-06-26T06:25:35.058Z,1003.8
2017-06-26T06:26:45.325Z,1003.82
2017-06-26T06:27:55.508Z,1003.84
2017-06-26T06:29:05.773Z,1003.83
2017-06-26T06:30:16.011Z,1003.91
2017-06-26T06:31:26.260Z,1003.92
2017-06-26T06:32:36.505Z,1003.88
2017-06-26T06:33:47.017Z,1003.85
2017-06-26T06:34:57.301Z,1003.91
2017-06-26T06:36:07.559Z,1003.93
2017-06-26T06:37:17.834Z,1003.91
2017-06-26T06:38:28.110Z,1003.94
2017-06-26T06:39:38.621Z,1004.03
2017-06-26T06:40:48.567Z,1004.22
2017-06-26T06:41:58.808Z,1004.34
2017-06-26T06:43:08.756Z,1004.46
2017-06-26T06:44:18.997Z,1004.37
2017-06-26T06:45:29.535Z,1004.43
2017-06-26T06:46:39.844Z,1004.44
2017-06-26T06:47:50.346Z,1004.49
2017-06-26T06:49:00.611Z,1004.54
2017-06-26T06:50:10.918Z,1004.65
2017-06-26T06:51:21.425Z,1004.68
2017-06-26T06:52:31.392Z,1004.66
2017-06-26T06:53:41.674Z,1004.67
2017-06-26T06:54:51.666Z,1004.54
2017-06-26T06:56:01.628Z,1004.57
2017-06-26T06:57:11.834Z,1004.63
2017-06-26T06:58:22.103Z,1004.61
2017-06-26T06:59:32.412Z,1004.62
2017-06-26T07:00:42.717Z,1004.72
2017-06-26T07:01:53.069Z,1004.75
2017-06-26T07:03:03.306Z,1004.78
2017-06-26T07:04:13.593Z,1004.82
2017-06-26T07:05:23.886Z,1004.78
2017-06-26T07:06:34.217Z,1004.81
2017-06-26T07:07:44.203Z,1004.89
2017-06-26T07:08:54.722Z,1004.91
2017-06-26T07:10:04.725Z,1004.9
2017-06-26T07:11:14.990Z,1004.95
2017-06-26T07:12:25.310Z,1005
2017-06-26T07:13:35.599Z,1005.01
2017-06-26T07:14:46.070Z,1005.06
2017-06-26T07:15:56.352Z,1005.04
2017-06-26T07:17:06.615Z,1005.13
2017-06-26T07:18:16.881Z,1005.06
2017-06-26T07:19:26.846Z,1005.17
2017-06-26T07:20:37.427Z,1005.17
2017-06-26T07:21:47.776Z,1005.11
2017-06-26T07:22:58.051Z,1005.13
2017-06-26T07:24:08.312Z,1005.19
2017-06-26T07:25:18.585Z,1005.16
2017-06-26T07:26:29.113Z,1005.24
2017-06-26T07:27:39.397Z,1005.18
2017-06-26T07:28:49.679Z,1005.16
2017-06-26T07:29:59.972Z,1005.13
2017-06-26T07:31:10.240Z,1005.16
2017-06-26T07:32:20.779Z,1005.17
2017-06-26T07:33:30.751Z,1005.12
2017-06-26T07:34:41.045Z,1005.06
2017-06-26T07:35:51.032Z,1004.97
2017-06-26T07:37:01.285Z,1004.95
2017-06-26T07:38:11.744Z,1004.88
2017-06-26T07:39:22.031Z,1004.85
2017-06-26T07:40:32.397Z,1004.79
2017-06-26T07:41:42.866Z,1004.75
2017-06-26T07:42:52.832Z,1004.86
2017-06-26T07:44:03.339Z,1004.88
2017-06-26T07:45:13.637Z,1004.95
2017-06-26T07:46:23.918Z,1004.91
2017-06-26T07:47:34.241Z,1004.96
2017-06-26T07:48:44.523Z,1005.1
2017-06-26T07:49:55.064Z,1005.11
2017-06-26T07:51:05.356Z,1005.17
2017-06-26T07:52:15.316Z,1005.21
2017-06-26T07:53:25.580Z,1005.24
2017-06-26T07:54:35.848Z,1005.29
2017-06-26T07:55:46.064Z,1005.33
2017-06-26T07:56:56.024Z,1005.37
2017-06-26T07:58:06.332Z,1005.43
2017-06-26T07:59:16.607Z,1005.38
2017-06-26T08:00:26.861Z,1005.41
2017-06-26T08:01:36.758Z,1005.39
2017-06-26T08:02:46.391Z,1005.37
2017-06-26T08:03:56.640Z,1005.39
2017-06-26T08:05:06.590Z,1005.33
2017-06-26T08:06:16.833Z,1005.32
2017-06-26T08:07:27.361Z,1005.38
2017-06-26T08:08:37.636Z,1005.41
2017-06-26T08:09:47.920Z,1005.54
2017-06-26T08:10:58.213Z,1005.58
2017-06-26T08:12:08.176Z,1005.5
2017-06-26T08:13:18.702Z,1005.48
2017-06-26T08:14:28.684Z,1005.56
2017-06-26T08:15:38.957Z,1005.58
2017-06-26T08:16:49.230Z,1005.67
2017-06-26T08:17:59.536Z,1005.69
2017-06-26T08:19:09.736Z,1005.76
2017-06-26T08:20:19.691Z,1005.67
2017-06-26T08:21:29.039Z,1005.69
2017-06-26T08:22:38.988Z,1005.72
2017-06-26T08:23:49.245Z,1005.89
2017-06-26T08:24:59.470Z,1005.81
2017-06-26T08:26:09.111Z,1005.74
2017-06-26T08:27:19.402Z,1005.84
2017-06-26T08:28:29.675Z,1005.83
2017-06-26T08:29:39.941Z,1005.78
2017-06-26T08:30:50.694Z,1005.81
2017-06-26T08:32:01.003Z,1005.76
2017-06-26T08:33:10.969Z,1005.81
2017-06-26T08:34:20.929Z,1005.88
2017-06-26T08:35:31.187Z,1005.89
2017-06-26T08:36:41.713Z,1005.84
2017-06-26T08:37:51.990Z,1005.87
2017-06-26T08:39:01.961Z,1005.86
2017-06-26T08:40:12.263Z,1005.97
2017-06-26T08:41:22.240Z,1005.92
2017-06-26T08:42:32.766Z,1005.95
2017-06-26T08:43:43.056Z,1005.97
2017-06-26T08:44:53.004Z,1005.96
2017-06-26T08:46:02.977Z,1006.07
2017-06-26T08:47:13.251Z,1006.08
2017-06-26T08:48:23.777Z,1005.99
2017-06-26T08:49:34.087Z,1006.04
2017-06-26T08:50:44.049Z,1006.06
2017-06-26T08:51:54.325Z,1005.99
2017-06-26T08:53:04.285Z,1006.05
2017-06-26T08:54:14.816Z,1006.08
2017-06-26T08:55:24.808Z,1006.03
2017-06-26T08:56:34.732Z,1006.07
2017-06-26T08:57:44.370Z,1006.01
2017-06-26T08:58:54.642Z,1005.98
2017-06-26T09:00:05.179Z,1006.02
2017-06-26T09:01:15.150Z,1006.03
2017-06-26T09:02:25.432Z,1006.09
2017-06-26T09:03:35.734Z,1006.13
2017-06-26T09:04:46.020Z,1006.04
2017-06-26T09:05:55.925Z,1006.09
2017-06-26T09:07:06.199Z,1006.11
2017-06-26T09:08:16.488Z,1006.04
2017-06-26T09:09:26.755Z,1006.1
2017-06-26T09:10:36.716Z,1006.13
2017-06-26T09:11:47.264Z,1006.17
2017-06-26T09:12:57.252Z,1006.19
2017-06-26T09:14:07.543Z,1006.15
2017-06-26T09:15:17.550Z,1006.18
2017-06-26T09:16:27.819Z,1006.17
2017-06-26T09:17:38.341Z,1006.22
2017-06-26T09:18:48.631Z,1006.23
2017-06-26T09:19:58.902Z,1006.29
2017-06-26T09:21:08.899Z,1006.3
2017-06-26T09:22:19.168Z,1006.18
2017-06-26T09:23:29.713Z,1006.23
2017-06-26T09:24:40.046Z,1006.19
2017-06-26T09:25:50.319Z,1006.26
2017-06-26T09:27:00.573Z,1006.2
2017-06-26T09:28:10.233Z,1006.25
2017-06-26T09:29:20.750Z,1006.23
2017-06-26T09:30:31.021Z,1006.33
2017-06-26T09:31:41.300Z,1006.21
2017-06-26T09:32:51.263Z,1006.28
2017-06-26T09:34:01.537Z,1006.38
2017-06-26T09:35:12.058Z,1006.33
2017-06-26T09:36:22.328Z,1006.42
2017-06-26T09:37:32.610Z,1006.32
2017-06-26T09:38:42.879Z,1006.38
2017-06-26T09:39:53.166Z,1006.34
2017-06-26T09:41:03.688Z,1006.26
2017-06-26T09:42:13.959Z,1006.26
2017-06-26T09:43:24.223Z,1006.29
2017-06-26T09:44:34.548Z,1006.36
2017-06-26T09:45:44.824Z,1006.32
2017-06-26T09:46:54.750Z,1006.35
2017-06-26T09:48:05.043Z,1006.37
2017-06-26T09:49:15.309Z,1006.43
2017-06-26T09:50:25.574Z,1006.67
2017-06-26T09:51:36.084Z,1006.44
2017-06-26T09:52:46.600Z,1006.5
2017-06-26T09:53:56.572Z,1006.44
2017-06-26T09:55:06.543Z,1006.5
2017-06-26T09:56:16.833Z,1006.51
2017-06-26T09:57:27.101Z,1006.45
2017-06-26T09:58:37.621Z,1006.47
2017-06-26T09:59:47.596Z,1006.48
2017-06-26T10:00:57.289Z,1006.54
2017-06-26T10:02:06.964Z,1006.52
2017-06-26T10:03:16.915Z,1006.49
2017-06-26T10:04:27.436Z,1006.56
2017-06-26T10:05:37.383Z,1006.55
2017-06-26T10:06:47.341Z,1006.52
2017-06-26T10:07:56.993Z,1006.56
2017-06-26T10:09:07.279Z,1006.61
2017-06-26T10:10:17.798Z,1006.74
2017-06-26T10:11:27.786Z,1006.63
2017-06-26T10:12:37.749Z,1006.57
2017-06-26T10:13:47.712Z,1006.65
2017-06-26T10:14:58.004Z,1006.68
2017-06-26T10:16:08.524Z,1006.61
2017-06-26T10:17:18.793Z,1006.62
2017-06-26T10:18:29.049Z,1006.59
2017-06-26T10:19:39.014Z,1006.65
2017-06-26T10:20:49.287Z,1006.71
2017-06-26T10:21:59.821Z,1006.6
2017-06-26T10:23:09.477Z,1006.64
2017-06-26T10:24:19.124Z,1006.66
2017-06-26T10:25:29.077Z,1006.73
2017-06-26T10:26:39.348Z,1006.8
2017-06-26T10:27:49.878Z,1006.8
2017-06-26T10:28:59.855Z,1006.78
2017-06-26T10:30:10.132Z,1006.81
2017-06-26T10:31:19.783Z,1006.67
2017-06-26T10:32:30.061Z,1006.74
2017-06-26T10:33:40.592Z,1006.65
2017-06-26T10:34:50.891Z,1006.66
2017-06-26T10:36:01.185Z,1006.47
2017-06-26T10:37:11.157Z,1006.61
2017-06-26T10:38:21.446Z,1006.68
2017-06-26T10:39:31.655Z,1006.68
2017-06-26T10:40:41.928Z,1006.68
2017-06-26T10:41:52.223Z,1006.68
2017-06-26T10:43:02.516Z,1006.59
2017-06-26T10:44:12.826Z,1006.66
2017-06-26T10:45:23.047Z,1006.67
2017-06-26T10:46:32.703Z,1006.75
2017-06-26T10:47:42.987Z,1006.65
2017-06-26T10:48:53.263Z,1006.74
2017-06-26T10:50:03.235Z,1006.68
2017-06-26T10:51:13.469Z,1006.85
2017-06-26T10:52:23.761Z,1006.74
2017-06-26T10:53:34.036Z,1006.86
2017-06-26T10:54:44.002Z,1006.84
2017-06-26T10:55:53.981Z,1006.85
2017-06-26T10:57:04.198Z,1006.82
2017-06-26T10:58:13.849Z,1006.83
2017-06-26T10:59:23.533Z,1006.73
2017-06-26T11:00:33.831Z,1006.85
2017-06-26T11:01:44.103Z,1006.78
2017-06-26T11:02:54.354Z,1006.85
2017-06-26T11:04:04.615Z,1006.73
2017-06-26T11:05:14.894Z,1006.76
2017-06-26T11:06:25.157Z,1006.74
2017-06-26T11:07:35.436Z,1006.79
2017-06-26T11:08:45.961Z,1006.84
2017-06-26T11:09:55.915Z,1006.86
2017-06-26T11:11:06.190Z,1006.93
2017-06-26T11:12:16.478Z,1006.98
2017-06-26T11:13:26.451Z,1006.88
2017-06-26T11:14:36.976Z,1006.9
2017-06-26T11:15:46.933Z,1006.86
2017-06-26T11:16:57.215Z,1006.84
2017-06-26T11:18:07.501Z,1006.87
2017-06-26T11:19:17.449Z,1006.92
2017-06-26T11:20:27.979Z,1006.84
2017-06-26T11:21:37.960Z,1006.77
2017-06-26T11:22:47.633Z,1006.74
2017-06-26T11:23:57.920Z,1006.96
2017-06-26T11:25:07.887Z,1006.93
2017-06-26T11:26:18.120Z,1006.83
2017-06-26T11:27:28.092Z,1006.81
2017-06-26T11:28:38.376Z,1006.97
2017-06-26T11:29:48.635Z,1006.79
2017-06-26T11:30:58.903Z,1006.88
2017-06-26T11:32:09.126Z,1006.94
2017-06-26T11:33:19.408Z,1006.78
2017-06-26T11:34:29.728Z,1006.8
2017-06-26T11:35:40.024Z,1006.72
2017-06-26T11:36:50.353Z,1006.78
2017-06-26T11:38:00.656Z,1006.72
2017-06-26T11:39:10.912Z,1006.75
2017-06-26T11:40:21.251Z,1006.77
2017-06-26T11:41:30.598Z,1006.81
2017-06-26T11:42:40.882Z,1006.82
2017-06-26T11:43:51.462Z,1006.83
2017-06-26T11:45:00.837Z,1006.83
2017-06-26T11:46:11.118Z,1006.85
2017-06-26T11:47:21.070Z,1006.87
2017-06-26T11:48:31.359Z,1006.79
2017-06-26T11:49:41.282Z,1006.68
2017-06-26T11:50:50.637Z,1006.81
2017-06-26T11:52:00.915Z,1006.8
2017-06-26T11:53:11.165Z,1006.72
2017-06-26T11:54:21.454Z,1006.7
2017-06-26T11:55:31.992Z,1006.76
2017-06-26T11:56:41.970Z,1006.77
2017-06-26T11:57:52.251Z,1006.88
2017-06-26T11:59:02.558Z,1006.83
2017-06-26T12:00:12.837Z,1006.77
2017-06-26T12:01:23.103Z,1006.76
2017-06-26T12:02:32.744Z,1006.83
2017-06-26T12:03:42.740Z,1006.68
2017-06-26T12:04:53.022Z,1006.7
2017-06-26T12:06:03.284Z,1006.67
2017-06-26T12:07:13.825Z,1006.72
2017-06-26T12:08:24.093Z,1006.76
2017-06-26T12:09:34.375Z,1006.77
2017-06-26T12:10:44.039Z,1006.66
2017-06-26T12:11:53.695Z,1006.73
2017-06-26T12:13:05.554Z,1006.72
2017-06-26T12:14:15.825Z,1006.75
2017-06-26T12:15:26.111Z,1006.6
2017-06-26T12:16:35.759Z,1006.64
2017-06-26T12:17:45.713Z,1006.76
2017-06-26T12:18:56.290Z,1006.59
2017-06-26T12:20:06.296Z,1006.64
2017-06-26T12:21:16.261Z,1006.6
2017-06-26T12:22:26.526Z,1006.66
2017-06-26T12:23:36.491Z,1006.84
2017-06-26T12:24:47.021Z,1006.79
2017-06-26T12:25:56.991Z,1006.61
2017-06-26T12:27:07.264Z,1006.6
2017-06-26T12:28:16.935Z,1006.75
2017-06-26T12:29:27.213Z,1006.65
2017-06-26T12:30:37.750Z,1006.66
2017-06-26T12:31:47.743Z,1006.62
2017-06-26T12:32:58.016Z,1006.58
2017-06-26T12:34:08.305Z,1006.58
2017-06-26T12:35:18.568Z,1006.6
2017-06-26T12:36:28.800Z,1006.68
2017-06-26T12:37:38.779Z,1006.69
2017-06-26T12:38:48.757Z,1006.61
2017-06-26T12:39:58.710Z,1006.62
2017-06-26T12:41:08.981Z,1006.75
2017-06-26T12:42:19.210Z,1006.59
2017-06-26T12:43:29.177Z,1006.63
2017-06-26T12:44:39.462Z,1006.68
2017-06-26T12:45:49.728Z,1006.83
2017-06-26T12:47:00.031Z,1006.69
2017-06-26T12:48:10.624Z,1006.71
2017-06-26T12:49:20.583Z,1006.78
2017-06-26T12:50:30.543Z,1006.74
2017-06-26T12:51:40.804Z,1006.69
2017-06-26T12:52:50.453Z,1006.71
2017-06-26T12:54:01.003Z,1006.78
2017-06-26T12:55:11.285Z,1006.58
2017-06-26T12:56:21.284Z,1006.61
2017-06-26T12:57:31.253Z,1006.52
2017-06-26T12:58:41.520Z,1006.58
2017-06-26T12:59:51.725Z,1006.58
2017-06-26T13:01:01.706Z,1006.57
2017-06-26T13:02:11.685Z,1006.55
2017-06-26T13:03:21.958Z,1006.56
2017-06-26T13:04:32.238Z,1006.61
2017-06-26T13:05:42.758Z,1006.58
2017-06-26T13:06:52.720Z,1006.59
2017-06-26T13:08:02.693Z,1006.62
2017-06-26T13:09:12.663Z,1006.54
2017-06-26T13:10:22.952Z,1006.67
2017-06-26T13:11:33.178Z,1006.56
2017-06-26T13:12:43.161Z,1006.64
2017-06-26T13:13:53.448Z,1006.67
2017-06-26T13:15:03.721Z,1006.68
2017-06-26T13:16:13.383Z,1006.59
2017-06-26T13:17:23.917Z,1006.74
2017-06-26T13:18:34.228Z,1006.62
2017-06-26T13:19:44.510Z,1006.81
2017-06-26T13:20:54.185Z,1006.55
2017-06-26T13:22:04.455Z,1006.8
2017-06-26T13:23:14.975Z,1006.55
2017-06-26T13:24:24.961Z,1006.59
2017-06-26T13:25:35.237Z,1006.69
2017-06-26T13:26:44.920Z,1006.48
2017-06-26T13:27:54.910Z,1006.64
2017-06-26T13:29:05.446Z,1006.66
2017-06-26T13:30:15.728Z,1006.64
2017-06-26T13:31:25.718Z,1006.67
2017-06-26T13:32:35.374Z,1006.73
2017-06-26T13:33:45.334Z,1006.73
2017-06-26T13:34:55.856Z,1006.71
2017-06-26T13:36:06.123Z,1006.74
2017-06-26T13:37:16.383Z,1006.72
2017-06-26T13:38:26.354Z,1006.68
2017-06-26T13:39:36.317Z,1006.73
2017-06-26T13:40:47.063Z,1006.73
2017-06-26T13:41:57.005Z,1006.73
2017-06-26T13:43:06.982Z,1006.64
2017-06-26T13:44:16.935Z,1006.68
2017-06-26T13:45:27.203Z,1006.78
2017-06-26T13:46:37.746Z,1006.73
2017-06-26T13:47:48.029Z,1006.7
2017-06-26T13:48:58.315Z,1006.8
2017-06-26T13:50:08.585Z,1006.85
2017-06-26T13:51:18.546Z,1006.78
2017-06-26T13:52:29.085Z,1006.92
2017-06-26T13:53:39.340Z,1006.83
2017-06-26T13:54:49.607Z,1006.82
2017-06-26T13:55:59.570Z,1006.8
2017-06-26T13:57:09.836Z,1006.78
2017-06-26T13:58:20.097Z,1006.85
2017-06-26T13:59:30.357Z,1006.8
2017-06-26T14:00:40.301Z,1006.84
2017-06-26T14:01:50.281Z,1006.84
2017-06-26T14:03:00.544Z,1006.86
2017-06-26T14:04:10.460Z,1006.9
2017-06-26T14:05:20.748Z,1006.8
2017-06-26T14:06:31.018Z,1006.85
2017-06-26T14:07:40.689Z,1006.85
2017-06-26T14:08:50.956Z,1006.87
2017-06-26T14:10:00.865Z,1006.85
2017-06-26T14:11:10.837Z,1006.88